sensor_id;sensor_type;location;lat;lon;timestamp;temperature;humidity
2050;DHT22;8478;49.208;8.806;2024-03-22T00:02:02;13.40;99.90
2050;DHT22;8478;49.208;8.806;2024-03-22T00:04:27;13.40;99.90
2050;DHT22;8478;49.208;8.806;2024-03-22T00:06:53;13.30;99.90
2050;DHT22;8478;49.208;8.806;2024-03-22T00:09:19;13.40;99.90
2050;DHT22;8478;49.208;8.806;2024-03-22T00:11:44;13.40;99.90
2050;DHT22;8478;49.208;8.806;2024-03-22T00:14:11;13.30;99.90
2050;DHT22;8478;49.208;8.806;2024-03-22T00:16:37;13.30;99.90
2050;DHT22;8478;49.208;8.806;2024-03-22T00:19:03;13.30;99.90
2050;DHT22;8478;49.208;8.806;2024-03-22T00:21:29;13.30;99.90
2050;DHT22;8478;49.208;8.806;2024-03-22T00:23:55;13.30;99.90
2050;DHT22;8478;49.208;8.806;2024-03-22T00:26:21;13.30;99.90
2050;DHT22;8478;49.208;8.806;2024-03-22T00:28:47;13.30;99.90
2050;DHT22;8478;49.208;8.806;2024-03-22T00:31:13;13.30;99.90
2050;DHT22;8478;49.208;8.806;2024-03-22T00:33:38;13.30;99.90
2050;DHT22;8478;49.208;8.806;2024-03-22T00:36:04;13.30;99.90
2050;DHT22;8478;49.208;8.806;2024-03-22T00:38:30;13.30;99.90
2050;DHT22;8478;49.208;8.806;2024-03-22T00:40:56;13.30;99.90
2050;DHT22;8478;49.208;8.806;2024-03-22T00:43:21;13.30;99.90
2050;DHT22;8478;49.208;8.806;2024-03-22T00:45:47;13.30;99.90
2050;DHT22;8478;49.208;8.806;2024-03-22T00:48:13;13.30;99.90
2050;DHT22;8478;49.208;8.806;2024-03-22T00:50:39;13.20;99.90
2050;DHT22;8478;49.208;8.806;2024-03-22T00:53:04;13.20;99.90
2050;DHT22;8478;49.208;8.806;2024-03-22T00:55:32;13.30;99.90
2050;DHT22;8478;49.208;8.806;2024-03-22T00:57:57;13.30;99.90
2050;DHT22;8478;49.208;8.806;2024-03-22T01:00:23;13.20;99.90
2050;DHT22;8478;49.208;8.806;2024-03-22T01:02:50;13.20;99.90
2050;DHT22;8478;49.208;8.806;2024-03-22T01:05:16;13.20;99.90
2050;DHT22;8478;49.208;8.806;2024-03-22T01:07:42;13.20;99.90
2050;DHT22;8478;49.208;8.806;2024-03-22T01:10:08;13.20;99.90
2050;DHT22;8478;49.208;8.806;2024-03-22T01:12:33;13.20;99.90
2050;DHT22;8478;49.208;8.806;2024-03-22T01:14:59;13.20;99.90
2050;DHT22;8478;49.208;8.806;2024-03-22T01:17:25;13.20;99.90
2050;DHT22;8478;49.208;8.806;2024-03-22T01:19:51;13.20;99.90
2050;DHT22;8478;49.208;8.806;2024-03-22T01:22:17;13.20;99.90
2050;DHT22;8478;49.208;8.806;2024-03-22T01:24:44;13.20;99.90
2050;DHT22;8478;49.208;8.806;2024-03-22T01:27:09;13.20;99.90
2050;DHT22;8478;49.208;8.806;2024-03-22T01:29:35;13.20;99.90
2050;DHT22;8478;49.208;8.806;2024-03-22T01:32:02;13.10;99.90
2050;DHT22;8478;49.208;8.806;2024-03-22T01:34:28;13.20;99.90
2050;DHT22;8478;49.208;8.806;2024-03-22T01:36:53;13.20;99.90
2050;DHT22;8478;49.208;8.806;2024-03-22T01:39:20;13.10;99.90
2050;DHT22;8478;49.208;8.806;2024-03-22T01:41:49;13.10;99.90
2050;DHT22;8478;49.208;8.806;2024-03-22T01:44:15;13.10;99.90
2050;DHT22;8478;49.208;8.806;2024-03-22T01:46:42;13.10;99.90
2050;DHT22;8478;49.208;8.806;2024-03-22T01:49:12;13.10;99.90
2050;DHT22;8478;49.208;8.806;2024-03-22T01:51:42;13.10;99.90
2050;DHT22;8478;49.208;8.806;2024-03-22T01:54:11;13.10;99.90
2050;DHT22;8478;49.208;8.806;2024-03-22T01:56:37;13.10;99.90
2050;DHT22;8478;49.208;8.806;2024-03-22T01:59:03;13.10;99.90
2050;DHT22;8478;49.208;8.806;2024-03-22T02:01:29;13.10;99.90
2050;DHT22;8478;49.208;8.806;2024-03-22T02:03:55;13.10;99.90
2050;DHT22;8478;49.208;8.806;2024-03-22T02:06:21;13.10;99.90
2050;DHT22;8478;49.208;8.806;2024-03-22T02:08:46;13.10;99.90
2050;DHT22;8478;49.208;8.806;2024-03-22T02:11:12;13.10;99.90
2050;DHT22;8478;49.208;8.806;2024-03-22T02:13:39;13.10;99.90
2050;DHT22;8478;49.208;8.806;2024-03-22T02:16:05;13.10;99.90
2050;DHT22;8478;49.208;8.806;2024-03-22T02:18:30;13.10;99.90
2050;DHT22;8478;49.208;8.806;2024-03-22T02:20:56;13.10;99.90
2050;DHT22;8478;49.208;8.806;2024-03-22T02:23:35;13.10;99.90
2050;DHT22;8478;49.208;8.806;2024-03-22T02:26:02;13.00;99.90
2050;DHT22;8478;49.208;8.806;2024-03-22T02:28:28;13.00;99.90
2050;DHT22;8478;49.208;8.806;2024-03-22T02:30:54;13.10;99.90
2050;DHT22;8478;49.208;8.806;2024-03-22T02:33:20;13.00;99.90
2050;DHT22;8478;49.208;8.806;2024-03-22T02:35:46;13.00;99.90
2050;DHT22;8478;49.208;8.806;2024-03-22T02:38:12;13.00;99.90
2050;DHT22;8478;49.208;8.806;2024-03-22T02:40:38;13.00;99.90
2050;DHT22;8478;49.208;8.806;2024-03-22T02:43:03;13.00;99.90
2050;DHT22;8478;49.208;8.806;2024-03-22T02:45:30;13.00;99.90
2050;DHT22;8478;49.208;8.806;2024-03-22T02:47:56;13.00;99.90
2050;DHT22;8478;49.208;8.806;2024-03-22T02:50:22;13.00;99.90
2050;DHT22;8478;49.208;8.806;2024-03-22T02:52:48;13.00;99.90
2050;DHT22;8478;49.208;8.806;2024-03-22T02:55:14;13.00;99.90
2050;DHT22;8478;49.208;8.806;2024-03-22T02:57:40;13.00;99.90
2050;DHT22;8478;49.208;8.806;2024-03-22T03:00:06;13.00;99.90
2050;DHT22;8478;49.208;8.806;2024-03-22T03:02:31;13.00;99.90
2050;DHT22;8478;49.208;8.806;2024-03-22T03:04:57;12.90;99.90
2050;DHT22;8478;49.208;8.806;2024-03-22T03:07:24;13.00;99.90
2050;DHT22;8478;49.208;8.806;2024-03-22T03:09:50;13.00;99.90
2050;DHT22;8478;49.208;8.806;2024-03-22T03:12:15;13.00;99.90
2050;DHT22;8478;49.208;8.806;2024-03-22T03:14:41;13.00;99.90
2050;DHT22;8478;49.208;8.806;2024-03-22T03:17:07;13.00;99.90
2050;DHT22;8478;49.208;8.806;2024-03-22T03:19:33;13.00;99.90
2050;DHT22;8478;49.208;8.806;2024-03-22T03:21:58;13.00;99.90
2050;DHT22;8478;49.208;8.806;2024-03-22T03:24:24;12.90;99.90
2050;DHT22;8478;49.208;8.806;2024-03-22T03:26:50;13.00;99.90
2050;DHT22;8478;49.208;8.806;2024-03-22T03:29:15;12.90;99.90
2050;DHT22;8478;49.208;8.806;2024-03-22T03:31:41;12.90;99.90
2050;DHT22;8478;49.208;8.806;2024-03-22T03:34:06;12.90;99.90
2050;DHT22;8478;49.208;8.806;2024-03-22T03:36:32;12.90;99.90
2050;DHT22;8478;49.208;8.806;2024-03-22T03:38:58;12.90;99.90
2050;DHT22;8478;49.208;8.806;2024-03-22T03:41:23;12.90;99.90
2050;DHT22;8478;49.208;8.806;2024-03-22T03:43:49;12.90;99.90
2050;DHT22;8478;49.208;8.806;2024-03-22T03:46:14;12.90;99.90
2050;DHT22;8478;49.208;8.806;2024-03-22T03:48:40;12.90;99.90
2050;DHT22;8478;49.208;8.806;2024-03-22T03:51:05;12.90;99.90
2050;DHT22;8478;49.208;8.806;2024-03-22T03:53:31;12.90;99.90
2050;DHT22;8478;49.208;8.806;2024-03-22T03:55:57;12.90;99.90
2050;DHT22;8478;49.208;8.806;2024-03-22T03:58:22;12.90;99.90
2050;DHT22;8478;49.208;8.806;2024-03-22T04:00:48;12.90;99.90
2050;DHT22;8478;49.208;8.806;2024-03-22T04:03:14;12.90;99.90
2050;DHT22;8478;49.208;8.806;2024-03-22T04:05:40;12.90;99.90
2050;DHT22;8478;49.208;8.806;2024-03-22T04:08:05;12.90;99.90
2050;DHT22;8478;49.208;8.806;2024-03-22T04:10:31;12.90;99.90
2050;DHT22;8478;49.208;8.806;2024-03-22T04:12:57;12.90;99.90
2050;DHT22;8478;49.208;8.806;2024-03-22T04:15:23;12.80;99.90
2050;DHT22;8478;49.208;8.806;2024-03-22T04:17:49;12.90;99.90
2050;DHT22;8478;49.208;8.806;2024-03-22T04:20:15;12.90;99.90
2050;DHT22;8478;49.208;8.806;2024-03-22T04:22:40;12.90;99.90
2050;DHT22;8478;49.208;8.806;2024-03-22T04:25:06;12.80;99.90
2050;DHT22;8478;49.208;8.806;2024-03-22T04:27:32;12.90;99.90
2050;DHT22;8478;49.208;8.806;2024-03-22T04:29:57;12.80;99.90
2050;DHT22;8478;49.208;8.806;2024-03-22T04:32:23;12.80;99.90
2050;DHT22;8478;49.208;8.806;2024-03-22T04:34:49;12.80;99.90
2050;DHT22;8478;49.208;8.806;2024-03-22T04:37:15;12.80;99.90
2050;DHT22;8478;49.208;8.806;2024-03-22T04:39:40;12.80;99.90
2050;DHT22;8478;49.208;8.806;2024-03-22T04:42:06;12.80;99.90
2050;DHT22;8478;49.208;8.806;2024-03-22T04:44:33;12.80;99.90
2050;DHT22;8478;49.208;8.806;2024-03-22T04:46:58;12.80;99.90
2050;DHT22;8478;49.208;8.806;2024-03-22T04:49:24;12.80;99.90
2050;DHT22;8478;49.208;8.806;2024-03-22T04:51:50;12.80;99.90
2050;DHT22;8478;49.208;8.806;2024-03-22T04:54:15;12.80;99.90
2050;DHT22;8478;49.208;8.806;2024-03-22T04:56:41;12.80;99.90
2050;DHT22;8478;49.208;8.806;2024-03-22T04:59:07;12.80;99.90
2050;DHT22;8478;49.208;8.806;2024-03-22T05:01:32;12.80;99.90
2050;DHT22;8478;49.208;8.806;2024-03-22T05:03:58;12.80;99.90
2050;DHT22;8478;49.208;8.806;2024-03-22T05:06:23;12.80;99.90
2050;DHT22;8478;49.208;8.806;2024-03-22T05:08:49;12.80;99.90
2050;DHT22;8478;49.208;8.806;2024-03-22T05:11:15;12.80;99.90
2050;DHT22;8478;49.208;8.806;2024-03-22T05:13:40;12.80;99.90
2050;DHT22;8478;49.208;8.806;2024-03-22T05:16:07;12.80;99.90
2050;DHT22;8478;49.208;8.806;2024-03-22T05:18:32;12.80;99.90
2050;DHT22;8478;49.208;8.806;2024-03-22T05:20:58;12.80;99.90
2050;DHT22;8478;49.208;8.806;2024-03-22T05:23:24;12.80;99.90
2050;DHT22;8478;49.208;8.806;2024-03-22T05:25:49;12.80;99.90
2050;DHT22;8478;49.208;8.806;2024-03-22T05:28:15;12.80;99.90
2050;DHT22;8478;49.208;8.806;2024-03-22T05:30:40;12.80;99.90
2050;DHT22;8478;49.208;8.806;2024-03-22T05:33:06;12.70;99.90
2050;DHT22;8478;49.208;8.806;2024-03-22T05:35:32;12.80;99.90
2050;DHT22;8478;49.208;8.806;2024-03-22T05:37:57;12.70;99.90
2050;DHT22;8478;49.208;8.806;2024-03-22T05:40:23;12.70;99.90
2050;DHT22;8478;49.208;8.806;2024-03-22T05:42:48;12.70;99.90
2050;DHT22;8478;49.208;8.806;2024-03-22T05:45:14;12.70;99.90
2050;DHT22;8478;49.208;8.806;2024-03-22T05:47:40;12.70;99.90
2050;DHT22;8478;49.208;8.806;2024-03-22T05:50:06;12.70;99.90
2050;DHT22;8478;49.208;8.806;2024-03-22T05:52:33;12.70;99.90
2050;DHT22;8478;49.208;8.806;2024-03-22T05:54:59;12.70;99.90
2050;DHT22;8478;49.208;8.806;2024-03-22T05:57:25;12.70;99.90
2050;DHT22;8478;49.208;8.806;2024-03-22T05:59:51;12.70;99.90
2050;DHT22;8478;49.208;8.806;2024-03-22T06:02:17;12.70;99.90
2050;DHT22;8478;49.208;8.806;2024-03-22T06:04:42;12.70;99.90
2050;DHT22;8478;49.208;8.806;2024-03-22T06:07:08;12.70;99.90
2050;DHT22;8478;49.208;8.806;2024-03-22T06:09:35;12.70;99.90
2050;DHT22;8478;49.208;8.806;2024-03-22T06:12:11;12.70;99.90
2050;DHT22;8478;49.208;8.806;2024-03-22T06:14:37;12.70;99.90
2050;DHT22;8478;49.208;8.806;2024-03-22T06:17:06;12.70;99.90
2050;DHT22;8478;49.208;8.806;2024-03-22T06:19:32;12.70;99.90
2050;DHT22;8478;49.208;8.806;2024-03-22T06:21:57;12.70;99.90
2050;DHT22;8478;49.208;8.806;2024-03-22T06:24:23;12.70;99.90
2050;DHT22;8478;49.208;8.806;2024-03-22T06:26:49;12.70;99.90
2050;DHT22;8478;49.208;8.806;2024-03-22T06:29:15;12.70;99.90
2050;DHT22;8478;49.208;8.806;2024-03-22T06:31:44;12.70;99.90
2050;DHT22;8478;49.208;8.806;2024-03-22T06:34:09;12.70;99.90
2050;DHT22;8478;49.208;8.806;2024-03-22T06:36:35;12.70;99.90
2050;DHT22;8478;49.208;8.806;2024-03-22T06:39:01;12.70;99.90
2050;DHT22;8478;49.208;8.806;2024-03-22T06:41:28;12.70;99.90
2050;DHT22;8478;49.208;8.806;2024-03-22T06:43:54;12.70;99.90
2050;DHT22;8478;49.208;8.806;2024-03-22T06:46:20;12.70;99.90
2050;DHT22;8478;49.208;8.806;2024-03-22T06:48:46;12.70;99.90
2050;DHT22;8478;49.208;8.806;2024-03-22T06:51:12;12.60;99.90
2050;DHT22;8478;49.208;8.806;2024-03-22T06:53:37;12.70;99.90
2050;DHT22;8478;49.208;8.806;2024-03-22T06:56:04;12.70;99.90
2050;DHT22;8478;49.208;8.806;2024-03-22T06:58:29;12.70;99.90
2050;DHT22;8478;49.208;8.806;2024-03-22T07:00:55;12.70;99.90
2050;DHT22;8478;49.208;8.806;2024-03-22T07:03:21;12.70;99.90
2050;DHT22;8478;49.208;8.806;2024-03-22T07:05:49;12.60;99.90
2050;DHT22;8478;49.208;8.806;2024-03-22T07:08:15;12.60;99.90
2050;DHT22;8478;49.208;8.806;2024-03-22T07:10:41;12.70;99.90
2050;DHT22;8478;49.208;8.806;2024-03-22T07:13:07;12.70;99.90
2050;DHT22;8478;49.208;8.806;2024-03-22T07:15:33;12.60;99.90
2050;DHT22;8478;49.208;8.806;2024-03-22T07:17:59;12.70;99.90
2050;DHT22;8478;49.208;8.806;2024-03-22T07:20:25;12.70;99.90
2050;DHT22;8478;49.208;8.806;2024-03-22T07:22:51;12.70;99.90
2050;DHT22;8478;49.208;8.806;2024-03-22T07:25:17;12.60;99.90
2050;DHT22;8478;49.208;8.806;2024-03-22T07:27:43;12.70;99.90
2050;DHT22;8478;49.208;8.806;2024-03-22T07:30:09;12.70;99.90
2050;DHT22;8478;49.208;8.806;2024-03-22T07:32:34;12.70;99.90
2050;DHT22;8478;49.208;8.806;2024-03-22T07:35:01;12.70;99.90
2050;DHT22;8478;49.208;8.806;2024-03-22T07:37:26;12.60;99.90
2050;DHT22;8478;49.208;8.806;2024-03-22T07:39:52;12.70;99.90
2050;DHT22;8478;49.208;8.806;2024-03-22T07:42:18;12.70;99.90
2050;DHT22;8478;49.208;8.806;2024-03-22T07:44:43;12.70;99.90
2050;DHT22;8478;49.208;8.806;2024-03-22T07:47:09;12.60;99.90
2050;DHT22;8478;49.208;8.806;2024-03-22T07:49:34;12.70;99.90
2050;DHT22;8478;49.208;8.806;2024-03-22T07:52:02;12.60;99.90
2050;DHT22;8478;49.208;8.806;2024-03-22T07:54:27;12.70;99.90
2050;DHT22;8478;49.208;8.806;2024-03-22T07:56:53;12.70;99.90
2050;DHT22;8478;49.208;8.806;2024-03-22T07:59:19;12.70;99.90
2050;DHT22;8478;49.208;8.806;2024-03-22T08:01:44;12.70;99.90
2050;DHT22;8478;49.208;8.806;2024-03-22T08:04:10;12.70;99.90
2050;DHT22;8478;49.208;8.806;2024-03-22T08:06:35;12.70;99.90
2050;DHT22;8478;49.208;8.806;2024-03-22T08:09:01;12.60;99.90
2050;DHT22;8478;49.208;8.806;2024-03-22T08:11:28;12.70;99.90
2050;DHT22;8478;49.208;8.806;2024-03-22T08:13:54;12.70;99.90
2050;DHT22;8478;49.208;8.806;2024-03-22T08:16:27;12.70;99.90
2050;DHT22;8478;49.208;8.806;2024-03-22T08:18:53;12.70;99.90
2050;DHT22;8478;49.208;8.806;2024-03-22T08:21:19;12.70;99.90
2050;DHT22;8478;49.208;8.806;2024-03-22T08:23:44;12.70;99.90
2050;DHT22;8478;49.208;8.806;2024-03-22T08:26:10;12.70;99.90
2050;DHT22;8478;49.208;8.806;2024-03-22T08:28:36;12.70;99.90
2050;DHT22;8478;49.208;8.806;2024-03-22T08:31:05;12.70;99.90
2050;DHT22;8478;49.208;8.806;2024-03-22T08:33:30;12.70;99.90
2050;DHT22;8478;49.208;8.806;2024-03-22T08:35:56;12.70;99.90
2050;DHT22;8478;49.208;8.806;2024-03-22T08:38:22;12.70;99.90
2050;DHT22;8478;49.208;8.806;2024-03-22T08:40:49;12.70;99.90
2050;DHT22;8478;49.208;8.806;2024-03-22T08:43:15;12.70;99.90
2050;DHT22;8478;49.208;8.806;2024-03-22T08:45:41;12.70;99.90
2050;DHT22;8478;49.208;8.806;2024-03-22T08:48:07;12.70;99.90
2050;DHT22;8478;49.208;8.806;2024-03-22T08:50:33;12.70;99.90
2050;DHT22;8478;49.208;8.806;2024-03-22T08:52:59;12.70;99.90
2050;DHT22;8478;49.208;8.806;2024-03-22T08:55:24;12.70;99.90
2050;DHT22;8478;49.208;8.806;2024-03-22T08:57:50;12.70;99.90
2050;DHT22;8478;49.208;8.806;2024-03-22T09:00:17;12.70;99.90
2050;DHT22;8478;49.208;8.806;2024-03-22T09:02:43;12.70;99.90
2050;DHT22;8478;49.208;8.806;2024-03-22T09:05:08;12.70;99.90
2050;DHT22;8478;49.208;8.806;2024-03-22T09:07:34;12.70;99.90
2050;DHT22;8478;49.208;8.806;2024-03-22T09:09:59;12.70;99.90
2050;DHT22;8478;49.208;8.806;2024-03-22T09:12:25;12.70;99.90
2050;DHT22;8478;49.208;8.806;2024-03-22T09:14:51;12.70;99.90
2050;DHT22;8478;49.208;8.806;2024-03-22T09:17:16;12.70;99.90
2050;DHT22;8478;49.208;8.806;2024-03-22T09:19:42;12.70;99.90
2050;DHT22;8478;49.208;8.806;2024-03-22T09:22:07;12.70;99.90
2050;DHT22;8478;49.208;8.806;2024-03-22T09:24:33;12.70;99.90
2050;DHT22;8478;49.208;8.806;2024-03-22T09:26:59;12.70;99.90
2050;DHT22;8478;49.208;8.806;2024-03-22T09:29:24;12.70;99.90
2050;DHT22;8478;49.208;8.806;2024-03-22T09:31:50;12.70;99.90
2050;DHT22;8478;49.208;8.806;2024-03-22T09:34:18;12.80;99.90
2050;DHT22;8478;49.208;8.806;2024-03-22T09:36:45;12.70;99.90
2050;DHT22;8478;49.208;8.806;2024-03-22T09:39:11;12.80;99.90
2050;DHT22;8478;49.208;8.806;2024-03-22T09:41:43;12.80;99.90
2050;DHT22;8478;49.208;8.806;2024-03-22T09:44:13;12.80;99.90
2050;DHT22;8478;49.208;8.806;2024-03-22T09:46:42;12.80;99.90
2050;DHT22;8478;49.208;8.806;2024-03-22T09:49:12;12.80;99.90
2050;DHT22;8478;49.208;8.806;2024-03-22T09:51:39;12.80;99.90
2050;DHT22;8478;49.208;8.806;2024-03-22T09:54:05;12.80;99.90
2050;DHT22;8478;49.208;8.806;2024-03-22T09:56:31;12.80;99.90
2050;DHT22;8478;49.208;8.806;2024-03-22T09:58:57;12.80;99.90
2050;DHT22;8478;49.208;8.806;2024-03-22T10:01:24;12.80;99.90
2050;DHT22;8478;49.208;8.806;2024-03-22T10:03:51;12.80;99.90
2050;DHT22;8478;49.208;8.806;2024-03-22T10:06:17;12.80;99.90
2050;DHT22;8478;49.208;8.806;2024-03-22T10:08:44;12.80;99.90
2050;DHT22;8478;49.208;8.806;2024-03-22T10:11:10;12.80;99.90
2050;DHT22;8478;49.208;8.806;2024-03-22T10:13:36;12.90;99.90
2050;DHT22;8478;49.208;8.806;2024-03-22T10:16:02;12.90;99.90
2050;DHT22;8478;49.208;8.806;2024-03-22T10:18:27;12.90;99.90
2050;DHT22;8478;49.208;8.806;2024-03-22T10:21:00;12.90;99.90
2050;DHT22;8478;49.208;8.806;2024-03-22T10:23:26;12.90;99.90
2050;DHT22;8478;49.208;8.806;2024-03-22T10:25:52;12.90;99.90
2050;DHT22;8478;49.208;8.806;2024-03-22T10:28:18;12.90;99.90
2050;DHT22;8478;49.208;8.806;2024-03-22T10:30:44;12.90;99.90
2050;DHT22;8478;49.208;8.806;2024-03-22T10:33:10;12.90;99.90
2050;DHT22;8478;49.208;8.806;2024-03-22T10:35:36;12.90;99.90
2050;DHT22;8478;49.208;8.806;2024-03-22T10:38:03;12.90;99.90
2050;DHT22;8478;49.208;8.806;2024-03-22T10:40:29;12.90;99.90
2050;DHT22;8478;49.208;8.806;2024-03-22T10:42:56;12.90;99.90
2050;DHT22;8478;49.208;8.806;2024-03-22T10:45:22;12.90;99.90
2050;DHT22;8478;49.208;8.806;2024-03-22T10:47:52;12.90;99.90
2050;DHT22;8478;49.208;8.806;2024-03-22T10:50:22;12.90;99.90
2050;DHT22;8478;49.208;8.806;2024-03-22T10:52:58;12.90;99.90
2050;DHT22;8478;49.208;8.806;2024-03-22T10:55:33;12.90;99.90
2050;DHT22;8478;49.208;8.806;2024-03-22T10:57:59;12.90;99.90
2050;DHT22;8478;49.208;8.806;2024-03-22T11:00:33;12.90;99.90
2050;DHT22;8478;49.208;8.806;2024-03-22T11:03:01;12.90;99.90
2050;DHT22;8478;49.208;8.806;2024-03-22T11:05:27;12.90;99.90
2050;DHT22;8478;49.208;8.806;2024-03-22T11:08:28;12.90;99.90
2050;DHT22;8478;49.208;8.806;2024-03-22T11:10:56;12.90;99.90
2050;DHT22;8478;49.208;8.806;2024-03-22T11:13:22;12.90;99.90
2050;DHT22;8478;49.208;8.806;2024-03-22T11:15:51;13.00;99.90
2050;DHT22;8478;49.208;8.806;2024-03-22T11:18:18;13.00;99.90
2050;DHT22;8478;49.208;8.806;2024-03-22T11:20:44;12.90;99.90
2050;DHT22;8478;49.208;8.806;2024-03-22T11:23:12;13.00;99.90
2050;DHT22;8478;49.208;8.806;2024-03-22T11:25:38;13.00;99.90
2050;DHT22;8478;49.208;8.806;2024-03-22T11:28:04;13.00;99.90
2050;DHT22;8478;49.208;8.806;2024-03-22T11:30:31;13.00;99.90
2050;DHT22;8478;49.208;8.806;2024-03-22T11:32:57;13.10;99.90
2050;DHT22;8478;49.208;8.806;2024-03-22T11:35:23;13.10;99.90
2050;DHT22;8478;49.208;8.806;2024-03-22T11:37:50;13.10;99.90
2050;DHT22;8478;49.208;8.806;2024-03-22T11:40:16;13.00;99.90
2050;DHT22;8478;49.208;8.806;2024-03-22T11:42:45;13.00;99.90
2050;DHT22;8478;49.208;8.806;2024-03-22T11:45:13;13.00;99.90
2050;DHT22;8478;49.208;8.806;2024-03-22T11:47:39;13.00;99.90
2050;DHT22;8478;49.208;8.806;2024-03-22T11:50:05;13.00;99.90
2050;DHT22;8478;49.208;8.806;2024-03-22T11:52:31;13.00;99.90
2050;DHT22;8478;49.208;8.806;2024-03-22T11:54:57;13.10;99.90
2050;DHT22;8478;49.208;8.806;2024-03-22T11:57:23;13.10;99.90
2050;DHT22;8478;49.208;8.806;2024-03-22T11:59:51;13.00;99.90
2050;DHT22;8478;49.208;8.806;2024-03-22T12:02:17;13.10;99.90
2050;DHT22;8478;49.208;8.806;2024-03-22T12:04:45;13.10;99.90
2050;DHT22;8478;49.208;8.806;2024-03-22T12:07:13;13.10;99.90
2050;DHT22;8478;49.208;8.806;2024-03-22T12:09:42;13.10;99.90
2050;DHT22;8478;49.208;8.806;2024-03-22T12:12:10;13.10;99.90
2050;DHT22;8478;49.208;8.806;2024-03-22T12:14:36;13.10;99.90
2050;DHT22;8478;49.208;8.806;2024-03-22T12:17:05;13.10;99.90
2050;DHT22;8478;49.208;8.806;2024-03-22T12:19:31;13.10;99.90
2050;DHT22;8478;49.208;8.806;2024-03-22T12:21:57;13.10;99.90
2050;DHT22;8478;49.208;8.806;2024-03-22T12:24:26;13.10;99.90
2050;DHT22;8478;49.208;8.806;2024-03-22T12:26:55;13.10;99.90
2050;DHT22;8478;49.208;8.806;2024-03-22T12:29:21;13.10;99.90
2050;DHT22;8478;49.208;8.806;2024-03-22T12:31:47;13.10;99.90
2050;DHT22;8478;49.208;8.806;2024-03-22T12:34:13;13.10;99.90
2050;DHT22;8478;49.208;8.806;2024-03-22T12:36:38;13.10;99.90
2050;DHT22;8478;49.208;8.806;2024-03-22T12:39:04;13.10;99.90
2050;DHT22;8478;49.208;8.806;2024-03-22T12:41:30;13.10;99.90
2050;DHT22;8478;49.208;8.806;2024-03-22T12:43:57;13.10;99.90
2050;DHT22;8478;49.208;8.806;2024-03-22T12:46:23;13.10;99.90
2050;DHT22;8478;49.208;8.806;2024-03-22T12:48:49;13.10;99.90
2050;DHT22;8478;49.208;8.806;2024-03-22T12:51:15;13.10;99.90
2050;DHT22;8478;49.208;8.806;2024-03-22T12:53:40;13.10;99.90
2050;DHT22;8478;49.208;8.806;2024-03-22T12:56:06;13.10;99.90
2050;DHT22;8478;49.208;8.806;2024-03-22T12:58:32;13.20;99.90
2050;DHT22;8478;49.208;8.806;2024-03-22T13:00:58;13.10;99.90
2050;DHT22;8478;49.208;8.806;2024-03-22T13:03:25;13.10;99.90
2050;DHT22;8478;49.208;8.806;2024-03-22T13:05:51;13.20;99.90
2050;DHT22;8478;49.208;8.806;2024-03-22T13:08:16;13.20;99.90
2050;DHT22;8478;49.208;8.806;2024-03-22T13:10:42;13.20;99.90
2050;DHT22;8478;49.208;8.806;2024-03-22T13:13:10;13.20;99.90
2050;DHT22;8478;49.208;8.806;2024-03-22T13:15:36;13.20;99.90
2050;DHT22;8478;49.208;8.806;2024-03-22T13:18:03;13.20;99.90
2050;DHT22;8478;49.208;8.806;2024-03-22T13:20:29;13.20;99.90
2050;DHT22;8478;49.208;8.806;2024-03-22T13:22:55;13.20;99.90
2050;DHT22;8478;49.208;8.806;2024-03-22T13:25:21;13.20;99.90
2050;DHT22;8478;49.208;8.806;2024-03-22T13:27:46;13.20;99.90
2050;DHT22;8478;49.208;8.806;2024-03-22T13:30:12;13.20;99.90
2050;DHT22;8478;49.208;8.806;2024-03-22T13:32:40;13.20;99.90
2050;DHT22;8478;49.208;8.806;2024-03-22T13:35:06;13.20;99.90
2050;DHT22;8478;49.208;8.806;2024-03-22T13:37:32;13.20;99.90
2050;DHT22;8478;49.208;8.806;2024-03-22T13:39:58;13.20;99.90
2050;DHT22;8478;49.208;8.806;2024-03-22T13:42:24;13.20;99.90
2050;DHT22;8478;49.208;8.806;2024-03-22T13:44:50;13.20;99.90
2050;DHT22;8478;49.208;8.806;2024-03-22T13:47:15;13.20;99.90
2050;DHT22;8478;49.208;8.806;2024-03-22T13:49:41;13.30;99.90
2050;DHT22;8478;49.208;8.806;2024-03-22T13:52:08;13.20;99.90
2050;DHT22;8478;49.208;8.806;2024-03-22T13:54:34;13.20;99.90
2050;DHT22;8478;49.208;8.806;2024-03-22T13:57:00;13.30;99.90
2050;DHT22;8478;49.208;8.806;2024-03-22T13:59:26;13.20;99.90
2050;DHT22;8478;49.208;8.806;2024-03-22T14:01:52;13.30;99.90
2050;DHT22;8478;49.208;8.806;2024-03-22T14:04:18;13.30;99.90
2050;DHT22;8478;49.208;8.806;2024-03-22T14:06:45;13.30;99.90
2050;DHT22;8478;49.208;8.806;2024-03-22T14:09:11;13.30;99.90
2050;DHT22;8478;49.208;8.806;2024-03-22T14:11:39;13.30;99.90
2050;DHT22;8478;49.208;8.806;2024-03-22T14:14:05;13.30;99.90
2050;DHT22;8478;49.208;8.806;2024-03-22T14:16:32;13.30;99.90
2050;DHT22;8478;49.208;8.806;2024-03-22T14:18:58;13.30;99.90
2050;DHT22;8478;49.208;8.806;2024-03-22T14:21:23;13.30;99.90
2050;DHT22;8478;49.208;8.806;2024-03-22T14:23:50;13.30;99.90
2050;DHT22;8478;49.208;8.806;2024-03-22T14:26:17;13.30;99.90
2050;DHT22;8478;49.208;8.806;2024-03-22T14:28:43;13.30;99.90
2050;DHT22;8478;49.208;8.806;2024-03-22T14:31:09;13.30;99.90
2050;DHT22;8478;49.208;8.806;2024-03-22T14:33:36;13.30;99.90
2050;DHT22;8478;49.208;8.806;2024-03-22T14:36:02;13.30;99.90
2050;DHT22;8478;49.208;8.806;2024-03-22T14:38:28;13.30;99.90
2050;DHT22;8478;49.208;8.806;2024-03-22T14:40:54;13.30;99.90
2050;DHT22;8478;49.208;8.806;2024-03-22T14:43:21;13.30;99.90
2050;DHT22;8478;49.208;8.806;2024-03-22T14:45:46;13.30;99.90
2050;DHT22;8478;49.208;8.806;2024-03-22T14:48:12;13.30;99.90
2050;DHT22;8478;49.208;8.806;2024-03-22T14:50:37;13.30;99.90
2050;DHT22;8478;49.208;8.806;2024-03-22T14:53:06;13.30;99.90
2050;DHT22;8478;49.208;8.806;2024-03-22T14:55:32;13.30;99.90
2050;DHT22;8478;49.208;8.806;2024-03-22T14:57:57;13.40;99.90
2050;DHT22;8478;49.208;8.806;2024-03-22T15:00:23;13.30;99.90
2050;DHT22;8478;49.208;8.806;2024-03-22T15:02:52;13.30;99.90
2050;DHT22;8478;49.208;8.806;2024-03-22T15:05:18;13.40;99.90
2050;DHT22;8478;49.208;8.806;2024-03-22T15:07:44;13.40;99.90
2050;DHT22;8478;49.208;8.806;2024-03-22T15:10:09;13.40;99.90
2050;DHT22;8478;49.208;8.806;2024-03-22T15:12:35;13.40;99.90
2050;DHT22;8478;49.208;8.806;2024-03-22T15:15:00;13.40;99.90
2050;DHT22;8478;49.208;8.806;2024-03-22T15:17:26;13.40;99.90
2050;DHT22;8478;49.208;8.806;2024-03-22T15:19:52;13.40;99.90
2050;DHT22;8478;49.208;8.806;2024-03-22T15:22:18;13.40;99.90
2050;DHT22;8478;49.208;8.806;2024-03-22T15:24:46;13.40;99.90
2050;DHT22;8478;49.208;8.806;2024-03-22T15:27:12;13.40;99.90
2050;DHT22;8478;49.208;8.806;2024-03-22T15:29:38;13.40;99.90
2050;DHT22;8478;49.208;8.806;2024-03-22T15:32:04;13.40;99.90
2050;DHT22;8478;49.208;8.806;2024-03-22T15:34:31;13.40;99.90
2050;DHT22;8478;49.208;8.806;2024-03-22T15:36:57;13.40;99.90
2050;DHT22;8478;49.208;8.806;2024-03-22T15:39:22;13.40;99.90
2050;DHT22;8478;49.208;8.806;2024-03-22T15:41:51;13.40;99.90
2050;DHT22;8478;49.208;8.806;2024-03-22T15:44:17;13.40;99.90
2050;DHT22;8478;49.208;8.806;2024-03-22T15:46:43;13.40;99.90
2050;DHT22;8478;49.208;8.806;2024-03-22T15:49:09;13.40;99.90
2050;DHT22;8478;49.208;8.806;2024-03-22T15:51:35;13.40;99.90
2050;DHT22;8478;49.208;8.806;2024-03-22T15:54:01;13.40;99.90
2050;DHT22;8478;49.208;8.806;2024-03-22T15:56:26;13.40;99.90